Terminal Aerodrome Forecast
Issued by NWS

Home | Current Version | Previous Version | Text Only | Print | Product List | Glossary On
Versions: 1 2 3 4 5 6 7 8 9 10 11 12 13 14 15 16 17 18 19 20 21 22
000
FTUS46 KLOX 301311 AAA
TAFBUR
TAF AMD
KBUR 301311Z 3013/3112 VRB03KT 6SM BR OVC010
     FM301600 VRB03KT P6SM OVC010
     FM301700 18010KT P6SM SCT200
     FM310400 16010KT P6SM BKN200
     FM310800 VRB03KT P6SM OVC010=

USA.gov is the U.S. government's official web portal to all federal, state and local government web resources and services.